Time;durP1;ratioP1;P1;durP2;ratioP2;P2;SDS_P1;SDS_P2;PMS_P1;PMS_P2;Temp;Humidity;BMP_temperature;BMP_pressure;BME280_temperature;BME280_humidity;BME280_pressure;Samples;Min_cycle;Max_cycle;Signal;HPM_P1;HPM_P2
2022/03/04 00:02:15;;;;;;;14.30;12.90;;;4.50;30.40;;;;;;20551;6837;312567;-91
2022/03/04 00:04:41;;;;;;;12.60;11.40;;;4.70;30.00;;;;;;20745;6837;117605;-89
2022/03/04 00:07:08;;;;;;;13.17;11.90;;;4.70;29.90;;;;;;20754;6837;117687;-88
2022/03/04 00:09:33;;;;;;;14.13;12.82;;;4.60;30.00;;;;;;20545;6837;307251;-90
2022/03/04 00:11:59;;;;;;;13.87;12.50;;;4.70;30.00;;;;;;20539;6837;278590;-87
2022/03/04 00:14:25;;;;;;;12.57;11.27;;;5.00;29.50;;;;;;20741;6837;117370;-87
2022/03/04 00:16:51;;;;;;;14.37;12.90;;;5.00;29.50;;;;;;20518;6837;308427;-89
2022/03/04 00:19:16;;;;;;;14.23;13.02;;;5.00;29.60;;;;;;20532;6837;326699;-89
2022/03/04 00:21:42;;;;;;;14.60;13.30;;;5.30;29.30;;;;;;20535;6837;308791;-87
2022/03/04 00:24:07;;;;;;;14.43;13.13;;;5.50;29.00;;;;;;20534;6837;312674;-87
2022/03/04 00:26:34;;;;;;;13.20;11.90;;;5.40;29.00;;;;;;20740;6837;117577;-87
2022/03/04 00:29:00;;;;;;;14.07;12.77;;;5.40;29.00;;;;;;20545;6837;307187;-89
2022/03/04 00:31:26;;;;;;;14.60;13.30;;;5.40;29.20;;;;;;20552;6837;278049;-88
2022/03/04 00:33:51;;;;;;;12.32;11.02;;;5.60;29.00;;;;;;20767;6837;118122;-88
2022/03/04 00:36:17;;;;;;;12.65;11.38;;;5.30;29.20;;;;;;20785;6837;118445;-94
2022/03/04 00:38:44;;;;;;;12.52;11.38;;;5.00;29.60;;;;;;20768;6837;128196;-87
2022/03/04 00:41:11;;;;;;;12.23;11.03;;;4.80;29.90;;;;;;20763;6837;117682;-88
2022/03/04 00:43:37;;;;;;;12.53;11.33;;;4.50;30.00;;;;;;20753;6837;117766;-87
2022/03/04 00:46:02;;;;;;;12.18;10.98;;;4.30;30.40;;;;;;20762;6837;123819;-91
2022/03/04 00:48:28;;;;;;;12.63;11.43;;;4.20;30.60;;;;;;20758;6837;120017;-90
2022/03/04 00:50:53;;;;;;;13.45;10.98;;;4.10;30.80;;;;;;20727;6837;117882;-88
2022/03/04 00:53:19;;;;;;;13.13;11.98;;;4.20;31.80;;;;;;20546;6837;336309;-87
2022/03/04 00:55:45;;;;;;;15.83;13.57;;;4.20;31.40;;;;;;20536;6837;310566;-88
2022/03/04 00:58:12;;;;;;;13.27;11.83;;;4.60;30.70;;;;;;20739;6837;117950;-89
2022/03/04 01:00:37;;;;;;;14.43;13.20;;;4.60;30.60;;;;;;20526;6837;309774;-92
2022/03/04 01:03:02;;;;;;;13.93;12.73;;;4.70;30.50;;;;;;20510;6835;311964;-91
2022/03/04 01:05:28;;;;;;;12.37;11.23;;;5.00;30.20;;;;;;20763;6836;117356;-90
2022/03/04 01:07:54;;;;;;;20.60;18.67;;;4.90;30.30;;;;;;20535;6836;331715;-88
2022/03/04 01:10:19;;;;;;;19.25;17.23;;;4.90;31.60;;;;;;20552;6837;290134;-88
2022/03/04 01:12:46;;;;;;;17.25;15.18;;;5.10;32.40;;;;;;20742;6837;119071;-92
2022/03/04 01:15:11;;;;;;;19.73;14.97;;;5.00;32.30;;;;;;20760;6837;117655;-88
2022/03/04 01:17:38;;;;;;;17.98;16.27;;;4.60;32.50;;;;;;20527;6837;301370;-92
2022/03/04 01:20:04;;;;;;;16.67;14.97;;;4.60;33.40;;;;;;20756;6837;117344;-88
2022/03/04 01:22:30;;;;;;;16.00;14.33;;;4.50;33.30;;;;;;20717;6837;117465;-88
2022/03/04 01:24:55;;;;;;;16.43;13.80;;;4.20;33.30;;;;;;20763;6837;118327;-91
2022/03/04 01:27:21;;;;;;;14.38;12.52;;;4.00;33.50;;;;;;20763;6837;117534;-87
2022/03/04 01:29:47;;;;;;;14.17;12.83;;;3.80;33.60;;;;;;20764;6837;120213;-88
2022/03/04 01:32:12;;;;;;;17.17;15.57;;;3.60;33.70;;;;;;20545;6837;278588;-89
2022/03/04 01:34:39;;;;;;;15.93;14.43;;;3.80;34.50;;;;;;20513;6837;283014;-92
2022/03/04 01:37:05;;;;;;;13.93;12.53;;;4.20;34.00;;;;;;20752;6837;117591;-90
2022/03/04 01:39:30;;;;;;;15.82;14.43;;;4.30;33.60;;;;;;20539;6837;278576;-89
2022/03/04 01:41:56;;;;;;;14.17;12.87;;;4.30;33.60;;;;;;20751;6837;116680;-87
2022/03/04 01:44:21;;;;;;;15.83;14.27;;;4.30;33.50;;;;;;20521;6837;320073;-90
2022/03/04 01:46:48;;;;;;;13.62;12.25;;;4.20;33.40;;;;;;20737;6837;117357;-88
2022/03/04 01:49:13;;;;;;;14.90;13.50;;;4.20;33.40;;;;;;20754;6837;118122;-89
2022/03/04 01:51:39;;;;;;;16.37;14.87;;;4.00;33.60;;;;;;20548;6837;282134;-91
2022/03/04 01:54:04;;;;;;;14.02;12.57;;;4.00;34.00;;;;;;20750;6837;118273;-87
2022/03/04 01:56:30;;;;;;;15.60;14.20;;;4.00;33.20;;;;;;20516;6837;341375;-87
2022/03/04 01:58:55;;;;;;;15.57;14.07;;;4.00;33.70;;;;;;20355;6837;312543;-87
2022/03/04 02:01:21;;;;;;;14.47;13.07;;;4.40;33.50;;;;;;20746;6837;118062;-91
2022/03/04 02:03:47;;;;;;;13.50;12.20;;;3.90;33.30;;;;;;20758;6837;117368;-89
2022/03/04 02:06:13;;;;;;;13.20;11.80;;;3.90;33.30;;;;;;20755;6837;117637;-92
2022/03/04 02:08:38;;;;;;;14.70;13.23;;;3.60;33.40;;;;;;20526;6837;311944;-88
2022/03/04 02:11:05;;;;;;;15.03;12.67;;;3.60;32.90;;;;;;20756;6837;117487;-87
2022/03/04 02:13:31;;;;;;;15.13;13.00;;;3.60;32.90;;;;;;20754;6835;120363;-87
2022/03/04 02:15:59;;;;;;;15.33;13.93;;;3.40;33.10;;;;;;20550;6836;315945;-87
2022/03/04 02:18:24;;;;;;;14.10;12.60;;;3.60;33.50;;;;;;20754;6836;120294;-90
2022/03/04 02:20:50;;;;;;;15.15;13.65;;;3.60;33.40;;;;;;20528;6837;438098;-88
2022/03/04 02:23:15;;;;;;;13.17;11.97;;;3.70;33.40;;;;;;20753;6837;117948;-90
2022/03/04 02:25:41;;;;;;;15.07;13.67;;;3.70;33.40;;;;;;20537;6837;277668;-90
2022/03/04 02:28:06;;;;;;;14.17;12.77;;;3.80;33.40;;;;;;20752;6837;117814;-90
2022/03/04 02:30:32;;;;;;;15.73;12.50;;;3.70;33.30;;;;;;20738;6837;117293;-87
2022/03/04 02:33:01;;;;;;;14.95;13.62;;;3.50;33.50;;;;;;20551;6837;311030;-86
2022/03/04 02:35:27;;;;;;;14.70;13.20;;;3.60;33.20;;;;;;20756;6837;117308;-87
2022/03/04 02:37:52;;;;;;;14.50;13.10;;;3.60;33.20;;;;;;20744;6837;117400;-88
2022/03/04 02:40:20;;;;;;;14.45;12.95;;;3.30;33.30;;;;;;20751;6837;124106;-87
2022/03/04 02:42:45;;;;;;;14.13;11.60;;;3.10;33.50;;;;;;20733;6837;118361;-87
2022/03/04 02:45:11;;;;;;;13.25;11.85;;;3.00;33.80;;;;;;20754;6837;117435;-91
2022/03/04 02:47:38;;;;;;;13.90;12.47;;;2.80;34.10;;;;;;20751;6837;117667;-91
2022/03/04 02:50:03;;;;;;;15.52;14.13;;;2.80;34.20;;;;;;20539;6837;308951;-90
2022/03/04 02:52:29;;;;;;;13.40;12.13;;;3.00;34.70;;;;;;20740;6837;117685;-90
2022/03/04 02:54:55;;;;;;;13.93;12.47;;;3.00;34.90;;;;;;20722;6837;117413;-88
2022/03/04 02:57:21;;;;;;;13.67;12.27;;;2.90;34.10;;;;;;20751;6837;117633;-87
2022/03/04 02:59:46;;;;;;;16.35;14.87;;;2.80;34.40;;;;;;20541;6837;308171;-87
2022/03/04 03:02:12;;;;;;;14.68;13.13;;;3.00;34.90;;;;;;20749;6837;120569;-89
2022/03/04 03:04:37;;;;;;;16.60;15.10;;;3.10;34.30;;;;;;20520;6837;307561;-87
2022/03/04 03:07:03;;;;;;;14.63;13.05;;;3.20;33.90;;;;;;20752;6837;117899;-87
2022/03/04 03:09:29;;;;;;;14.93;13.43;;;3.20;33.60;;;;;;20749;6837;117351;-89
2022/03/04 03:11:56;;;;;;;16.33;14.77;;;3.00;33.80;;;;;;20536;6837;309033;-90
2022/03/04 03:14:22;;;;;;;14.03;12.53;;;3.10;34.10;;;;;;20746;6837;117198;-87
2022/03/04 03:16:48;;;;;;;13.70;12.40;;;3.10;34.10;;;;;;20733;6837;117870;-89
2022/03/04 03:19:13;;;;;;;14.03;12.63;;;3.00;34.30;;;;;;20753;6837;118287;-89
2022/03/04 03:21:39;;;;;;;14.23;12.73;;;2.80;34.40;;;;;;20753;6837;118491;-90
2022/03/04 03:24:05;;;;;;;15.47;14.00;;;2.60;34.50;;;;;;20535;6837;307655;-89
2022/03/04 03:26:30;;;;;;;14.70;13.30;;;2.80;35.00;;;;;;20724;6836;120275;-89
2022/03/04 03:28:56;;;;;;;16.62;15.13;;;3.00;34.30;;;;;;20404;6838;308265;-88
2022/03/04 03:31:23;;;;;;;14.50;12.40;;;3.00;34.60;;;;;;20744;6838;117688;-90
2022/03/04 03:33:48;;;;;;;17.08;15.52;;;3.00;34.20;;;;;;20518;6838;338700;-87
2022/03/04 03:36:14;;;;;;;17.27;15.57;;;3.10;34.10;;;;;;20497;6838;312674;-87
2022/03/04 03:38:39;;;;;;;14.07;12.57;;;3.40;33.90;;;;;;20709;6841;118611;-90
2022/03/04 03:41:06;;;;;;;13.67;12.27;;;3.10;34.10;;;;;;20723;6847;117511;-87
2022/03/04 03:43:31;;;;;;;14.07;12.67;;;3.00;33.90;;;;;;20716;6847;117467;-91
2022/03/04 03:45:58;;;;;;;15.03;13.20;;;2.60;34.60;;;;;;20722;6848;117456;-91
2022/03/04 03:48:23;;;;;;;16.77;15.17;;;2.60;34.60;;;;;;20514;6848;312579;-87
2022/03/04 03:50:49;;;;;;;17.58;13.75;;;2.80;34.60;;;;;;20690;6848;141862;-87
2022/03/04 03:53:14;;;;;;;15.05;13.43;;;2.80;34.40;;;;;;20721;6848;118417;-90
2022/03/04 03:55:41;;;;;;;17.30;15.60;;;2.60;34.50;;;;;;20508;6848;312239;-87
2022/03/04 03:58:08;;;;;;;15.10;13.70;;;2.80;35.20;;;;;;20720;6848;117965;-89
2022/03/04 04:00:34;;;;;;;14.87;13.37;;;2.80;34.90;;;;;;20701;6848;118325;-88
2022/03/04 04:02:59;;;;;;;16.93;15.43;;;2.60;35.00;;;;;;20529;6848;278149;-88
2022/03/04 04:05:24;;;;;;;15.77;13.80;;;2.70;34.90;;;;;;20720;6848;116706;-87
2022/03/04 04:07:50;;;;;;;17.50;15.80;;;2.70;34.60;;;;;;20502;6848;302462;-86
2022/03/04 04:10:17;;;;;;;16.50;14.73;;;2.80;34.70;;;;;;20720;6848;117427;-87
2022/03/04 04:12:42;;;;;;;17.40;15.80;;;2.70;34.30;;;;;;20483;6848;308607;-87
2022/03/04 04:15:09;;;;;;;15.30;13.80;;;2.80;34.30;;;;;;20715;6848;116704;-92
2022/03/04 04:17:35;;;;;;;17.43;15.73;;;2.70;34.20;;;;;;20509;6848;280212;-88
2022/03/04 04:20:01;;;;;;;17.20;15.60;;;3.00;34.30;;;;;;20506;6848;306173;-91
2022/03/04 04:22:27;;;;;;;13.87;12.53;;;3.00;34.30;;;;;;20713;6848;118184;-89
2022/03/04 04:24:52;;;;;;;17.30;15.80;;;2.90;34.20;;;;;;20477;6848;283867;-88
2022/03/04 04:27:18;;;;;;;15.50;13.97;;;2.90;33.40;;;;;;20719;6848;118621;-86
2022/03/04 04:29:43;;;;;;;15.90;13.60;;;2.80;33.80;;;;;;20720;6848;117398;-90
2022/03/04 04:32:09;;;;;;;16.70;15.20;;;2.60;34.80;;;;;;20510;6848;313719;-87
2022/03/04 04:34:35;;;;;;;17.17;15.57;;;2.60;34.60;;;;;;20491;6848;278652;-86
2022/03/04 04:37:00;;;;;;;17.80;16.20;;;2.90;34.60;;;;;;20506;6846;278216;-87
2022/03/04 04:39:27;;;;;;;16.73;15.33;;;3.20;34.30;;;;;;20520;6847;307358;-87
2022/03/04 04:41:53;;;;;;;14.63;13.20;;;3.40;34.10;;;;;;20720;6847;117423;-90
2022/03/04 04:44:20;;;;;;;16.90;15.40;;;3.20;34.00;;;;;;20511;6847;279020;-89
2022/03/04 04:46:45;;;;;;;17.60;16.00;;;3.10;34.20;;;;;;20481;6847;308263;-87
2022/03/04 04:49:13;;;;;;;16.50;13.93;;;3.10;33.70;;;;;;20714;6847;118080;-87
2022/03/04 04:51:40;;;;;;;17.50;15.60;;;3.10;33.50;;;;;;20492;6847;300078;-88
2022/03/04 04:54:06;;;;;;;15.00;13.60;;;3.10;33.60;;;;;;20711;6847;117299;-87
2022/03/04 04:56:31;;;;;;;17.20;15.60;;;2.90;33.70;;;;;;20496;6848;308623;-87
2022/03/04 04:58:57;;;;;;;17.15;15.50;;;2.90;34.40;;;;;;20510;6848;308577;-87
2022/03/04 05:01:24;;;;;;;17.60;16.00;;;3.10;33.90;;;;;;20519;6848;279522;-89
2022/03/04 05:03:49;;;;;;;14.43;13.03;;;3.20;33.60;;;;;;20718;6848;117468;-88
2022/03/04 05:06:15;;;;;;;14.97;13.37;;;3.00;33.50;;;;;;20720;6848;117583;-89
2022/03/04 05:08:40;;;;;;;17.87;16.27;;;2.70;34.00;;;;;;20544;6848;277652;-91
2022/03/04 05:11:08;;;;;;;15.57;14.13;;;2.60;34.40;;;;;;20744;6848;118074;-89
2022/03/04 05:13:32;;;;;;;16.57;14.77;;;2.60;34.40;;;;;;20718;6848;118024;-86
2022/03/04 05:15:58;;;;;;;20.85;15.05;;;2.30;34.50;;;;;;20703;6848;117780;-89
2022/03/04 05:18:24;;;;;;;16.00;13.93;;;2.10;34.70;;;;;;20723;6848;120564;-87
2022/03/04 05:20:50;;;;;;;19.33;17.33;;;1.80;34.80;;;;;;20487;6848;409830;-86
2022/03/04 05:23:58;;;;;;;15.93;14.27;;;1.90;35.20;;;;;;20710;6848;121570;-86
2022/03/04 05:25:41;;;;;;;19.07;17.27;;;1.90;35.00;;;;;;20446;6848;308151;-90
2022/03/04 05:28:08;;;;;;;18.85;17.05;;;2.00;35.40;;;;;;20506;6848;337795;-88
2022/03/04 05:30:33;;;;;;;17.90;14.27;;;2.30;35.30;;;;;;20698;6848;117839;-86
2022/03/04 05:32:59;;;;;;;14.43;13.00;;;2.20;35.10;;;;;;20718;6848;117712;-89
2022/03/04 05:35:25;;;;;;;17.50;15.93;;;2.00;35.40;;;;;;20488;6848;323139;-86
2022/03/04 05:37:52;;;;;;;17.27;15.70;;;2.10;35.90;;;;;;20480;6848;343239;-87
2022/03/04 05:40:19;;;;;;;17.93;16.17;;;2.40;35.40;;;;;;20502;6848;305677;-88
2022/03/04 05:42:44;;;;;;;15.23;13.63;;;2.60;34.50;;;;;;20688;6848;119008;-87
2022/03/04 05:45:12;;;;;;;32.97;14.07;;;2.50;34.50;;;;;;20722;6848;117750;-90
2022/03/04 05:47:39;;;;;;;16.27;14.23;;;2.20;34.90;;;;;;20717;6848;122538;-89
2022/03/04 05:50:04;;;;;;;15.30;13.70;;;1.90;35.20;;;;;;20725;6846;118130;-86
2022/03/04 05:52:30;;;;;;;16.10;13.70;;;1.70;35.50;;;;;;20720;6847;117455;-87
2022/03/04 05:54:56;;;;;;;16.27;13.60;;;1.60;35.90;;;;;;20582;6847;117422;-90
2022/03/04 05:57:23;;;;;;;15.40;12.80;;;1.40;35.90;;;;;;20721;6847;117783;-91
2022/03/04 05:59:48;;;;;;;17.40;15.30;;;1.30;36.10;;;;;;20512;6847;279135;-90
2022/03/04 06:02:14;;;;;;;17.63;15.93;;;1.80;36.60;;;;;;20516;6847;307839;-87
2022/03/04 06:04:40;;;;;;;15.03;13.60;;;1.80;36.60;;;;;;20690;6847;118196;-88
2022/03/04 06:07:07;;;;;;;16.67;15.10;;;1.90;36.00;;;;;;20509;6847;309100;-87
2022/03/04 06:09:34;;;;;;;16.00;14.30;;;2.00;36.30;;;;;;20712;6848;117811;-90
2022/03/04 06:11:59;;;;;;;15.73;13.47;;;2.00;36.10;;;;;;20717;6848;122310;-87
2022/03/04 06:14:26;;;;;;;14.87;13.47;;;1.80;36.20;;;;;;20714;6848;117560;-87
2022/03/04 06:16:52;;;;;;;18.05;16.35;;;1.60;36.40;;;;;;20497;6848;308682;-87
2022/03/04 06:19:17;;;;;;;18.63;16.87;;;1.70;36.50;;;;;;20509;6848;308482;-88
2022/03/04 06:21:43;;;;;;;19.03;17.23;;;2.00;36.00;;;;;;20510;6848;308607;-90
2022/03/04 06:24:08;;;;;;;19.30;17.47;;;2.40;35.40;;;;;;20507;6848;312633;-88
2022/03/04 06:26:38;;;;;;;16.07;14.33;;;2.50;34.80;;;;;;20699;6848;117589;-87
2022/03/04 06:29:04;;;;;;;18.23;16.52;;;2.50;35.50;;;;;;20504;6848;308001;-88
2022/03/04 06:31:29;;;;;;;15.80;14.17;;;2.50;35.40;;;;;;20717;6848;117860;-90
2022/03/04 06:33:55;;;;;;;18.35;16.55;;;2.50;35.60;;;;;;20502;6848;341158;-90
2022/03/04 06:36:20;;;;;;;17.00;15.40;;;2.60;35.30;;;;;;20500;6848;309618;-91
2022/03/04 06:38:46;;;;;;;17.10;15.57;;;3.00;35.30;;;;;;20482;6848;307390;-90
2022/03/04 06:41:11;;;;;;;18.27;16.37;;;3.40;34.70;;;;;;20508;6848;278096;-91
2022/03/04 06:43:37;;;;;;;18.17;16.48;;;3.70;34.20;;;;;;20499;6848;295064;-90
2022/03/04 06:46:03;;;;;;;19.60;17.80;;;4.00;33.50;;;;;;20545;6848;281284;-93
2022/03/04 06:48:28;;;;;;;17.95;16.15;;;4.30;33.00;;;;;;20799;6848;116613;-92
2022/03/04 06:50:55;;;;;;;20.53;18.57;;;4.10;33.30;;;;;;20559;6848;337280;-90
2022/03/04 06:53:21;;;;;;;17.65;16.02;;;4.20;33.20;;;;;;20582;6848;277906;-92
2022/03/04 06:55:48;;;;;;;15.13;13.63;;;4.50;32.90;;;;;;20813;6848;68455;-89
2022/03/04 06:58:13;;;;;;;14.07;12.67;;;4.40;33.00;;;;;;20945;6643;115652;-88
2022/03/04 07:00:49;;;;;;;15.33;13.83;;;4.20;33.60;;;;;;20722;6768;122172;-87
2022/03/04 07:03:24;;;;;;;23.60;14.17;;;3.90;34.10;;;;;;20744;6795;116920;-84
2022/03/04 07:06:00;;;;;;;29.73;16.50;;;3.80;34.60;;;;;;20615;6763;307873;-86
2022/03/04 07:08:37;;;;;;;18.73;15.60;;;4.10;34.30;;;;;;20371;6835;280012;-85
2022/03/04 07:11:12;;;;;;;17.50;15.80;;;5.10;32.90;;;;;;20553;6792;279322;-86
2022/03/04 07:13:47;;;;;;;18.20;16.60;;;5.00;32.80;;;;;;20608;6765;287626;-86
2022/03/04 07:16:23;;;;;;;18.27;16.50;;;5.50;32.30;;;;;;20665;6743;339317;-85
2022/03/04 07:18:56;;;;;;;18.27;16.47;;;5.70;31.50;;;;;;20944;6517;67976;-84
2022/03/04 07:21:22;;;;;;;15.57;13.87;;;5.60;31.90;;;;;;20900;6796;117305;-86
2022/03/04 07:23:48;;;;;;;16.37;14.63;;;5.40;32.60;;;;;;20906;6791;117000;-86
2022/03/04 07:26:13;;;;;;;17.47;15.07;;;5.20;33.20;;;;;;20886;6797;116876;-85
2022/03/04 07:28:39;;;;;;;17.98;16.10;;;5.00;33.60;;;;;;20472;6853;310098;-81
2022/03/04 07:31:04;;;;;;;18.40;16.70;;;5.20;34.20;;;;;;20495;6855;279439;-82
2022/03/04 07:33:33;;;;;;;25.90;15.10;;;5.70;33.10;;;;;;20761;6838;117984;-81
2022/03/04 07:35:58;;;;;;;15.87;14.23;;;5.70;33.30;;;;;;20706;6853;118362;-81
2022/03/04 07:38:25;;;;;;;14.68;13.27;;;5.60;33.40;;;;;;20708;6853;117674;-84
2022/03/04 07:40:50;;;;;;;14.60;13.10;;;5.60;33.90;;;;;;20747;6855;117053;-83
2022/03/04 07:43:16;;;;;;;16.80;15.20;;;5.50;34.10;;;;;;20498;6853;317377;-84
2022/03/04 07:45:41;;;;;;;15.67;14.13;;;5.80;34.40;;;;;;20765;6838;117946;-86
2022/03/04 07:48:09;;;;;;;15.73;12.60;;;5.90;34.20;;;;;;20712;6853;118012;-85
2022/03/04 07:50:35;;;;;;;17.77;16.08;;;5.80;34.20;;;;;;20473;6853;308358;-81
2022/03/04 07:53:01;;;;;;;16.70;15.30;;;6.00;34.00;;;;;;20514;6845;342340;-84
2022/03/04 07:55:27;;;;;;;16.77;13.77;;;6.50;33.70;;;;;;20721;6853;117783;-82
2022/03/04 07:57:52;;;;;;;16.73;15.33;;;6.50;33.60;;;;;;20557;6838;307894;-85
2022/03/04 08:00:18;;;;;;;16.98;15.52;;;6.70;33.50;;;;;;20492;6853;279591;-86
2022/03/04 08:02:43;;;;;;;15.93;14.32;;;7.00;32.90;;;;;;20699;6853;118125;-82
2022/03/04 08:05:10;;;;;;;16.23;13.93;;;7.10;32.90;;;;;;20715;6853;118590;-85
2022/03/04 08:07:36;;;;;;;15.60;14.07;;;6.90;33.20;;;;;;20709;6853;117131;-85
2022/03/04 08:10:02;;;;;;;16.13;13.77;;;6.80;33.40;;;;;;20712;6853;117512;-83
2022/03/04 08:12:27;;;;;;;16.07;14.57;;;6.80;33.70;;;;;;20709;6853;118100;-85
2022/03/04 08:14:53;;;;;;;15.45;13.93;;;6.80;34.00;;;;;;20701;6855;117641;-85
2022/03/04 08:17:21;;;;;;;17.35;14.57;;;6.80;34.00;;;;;;20741;6838;117646;-86
2022/03/04 08:19:47;;;;;;;17.95;16.35;;;6.80;34.10;;;;;;20503;6855;277815;-82
2022/03/04 08:22:12;;;;;;;18.50;16.62;;;7.30;33.80;;;;;;20584;6838;305842;-88
2022/03/04 08:24:39;;;;;;;21.85;16.50;;;7.80;32.60;;;;;;20799;6838;119797;-86
2022/03/04 08:27:07;;;;;;;20.20;16.77;;;8.00;32.10;;;;;;20802;6838;121637;-85
2022/03/04 08:29:33;;;;;;;19.70;16.87;;;8.00;31.90;;;;;;20748;6852;121079;-87
2022/03/04 08:31:59;;;;;;;20.05;18.08;;;8.00;31.90;;;;;;20554;6854;307096;-88
2022/03/04 08:34:24;;;;;;;19.80;16.15;;;8.20;30.40;;;;;;20789;6838;117977;-83
2022/03/04 08:36:50;;;;;;;18.12;16.25;;;8.40;30.90;;;;;;20673;6853;178739;-86
2022/03/04 08:39:15;;;;;;;19.43;17.63;;;8.50;31.40;;;;;;20485;6855;337744;-83
2022/03/04 08:41:41;;;;;;;18.33;16.40;;;8.70;31.20;;;;;;20792;6838;117353;-86
2022/03/04 08:44:07;;;;;;;20.08;18.27;;;9.20;30.00;;;;;;20511;6853;320020;-83
2022/03/04 08:46:33;;;;;;;19.60;17.67;;;9.10;29.60;;;;;;20482;6855;278754;-83
2022/03/04 08:48:59;;;;;;;23.10;20.63;;;9.40;28.20;;;;;;20722;6853;118095;-83
2022/03/04 08:51:26;;;;;;;17.80;16.10;;;9.40;28.70;;;;;;20708;6853;117697;-87
2022/03/04 08:53:49;;;;;;;31.73;28.45;;;9.30;29.20;;;;;;20509;6853;279436;-84
2022/03/04 08:56:15;;;;;;;38.63;31.63;;;9.40;28.20;;;;;;20516;6853;283132;-83
2022/03/04 08:58:40;;;;;;;20.73;18.85;;;9.70;28.20;;;;;;20494;6855;296705;-86
2022/03/04 09:01:06;;;;;;;19.03;17.23;;;9.90;28.00;;;;;;20720;6853;118043;-83
2022/03/04 09:03:33;;;;;;;19.20;17.30;;;9.80;28.70;;;;;;20708;6855;118317;-90
2022/03/04 09:05:59;;;;;;;19.73;17.63;;;9.70;28.60;;;;;;20739;6838;118086;-85
2022/03/04 09:08:27;;;;;;;27.33;24.58;;;9.60;29.00;;;;;;20493;6853;308348;-87
2022/03/04 09:10:54;;;;;;;21.47;19.50;;;9.70;28.40;;;;;;20514;6845;307364;-88
2022/03/04 09:13:20;;;;;;;19.30;17.30;;;10.10;27.10;;;;;;20718;6853;123893;-85
2022/03/04 09:15:46;;;;;;;19.17;17.17;;;10.00;27.20;;;;;;20753;6838;117743;-85
2022/03/04 09:18:12;;;;;;;18.83;16.93;;;10.00;27.20;;;;;;20688;6853;117749;-86
2022/03/04 09:20:38;;;;;;;17.77;15.97;;;9.70;28.00;;;;;;20701;6853;118195;-84
2022/03/04 09:23:04;;;;;;;20.60;18.50;;;9.70;28.20;;;;;;20492;6855;307217;-93
2022/03/04 09:25:30;;;;;;;18.23;16.37;;;9.90;27.40;;;;;;20745;6853;118037;-84
2022/03/04 09:27:57;;;;;;;17.80;16.10;;;10.00;27.00;;;;;;20709;6855;117662;-89
2022/03/04 09:30:22;;;;;;;18.60;16.70;;;10.00;27.00;;;;;;20748;6838;118214;-86
2022/03/04 09:32:49;;;;;;;21.03;16.80;;;9.90;27.70;;;;;;20695;6853;116905;-91
2022/03/04 09:35:14;;;;;;;20.33;18.33;;;9.90;27.80;;;;;;20520;6855;307142;-92
2022/03/04 09:37:40;;;;;;;19.58;17.62;;;10.10;25.20;;;;;;20547;6853;337942;-86
2022/03/04 09:40:10;;;;;;;20.65;18.67;;;10.80;25.50;;;;;;20506;6853;307337;-84
2022/03/04 09:42:36;;;;;;;18.50;16.60;;;10.80;24.80;;;;;;20741;6838;117781;-86
2022/03/04 09:45:01;;;;;;;17.87;15.97;;;10.80;25.30;;;;;;20716;6853;117475;-85
2022/03/04 09:47:26;;;;;;;17.87;15.97;;;10.60;25.60;;;;;;20706;6853;117778;-90
2022/03/04 09:49:52;;;;;;;19.83;18.03;;;10.60;26.20;;;;;;20488;6853;308808;-87
2022/03/04 09:52:17;;;;;;;18.70;16.70;;;10.80;25.50;;;;;;20700;6853;120795;-86
2022/03/04 09:54:48;;;;;;;19.47;17.27;;;10.90;25.60;;;;;;20686;6853;118888;-86
2022/03/04 09:57:13;;;;;;;20.20;18.10;;;10.90;25.60;;;;;;20486;6853;308302;-85
2022/03/04 09:59:39;;;;;;;20.42;18.55;;;11.00;25.00;;;;;;20485;6853;312057;-90
2022/03/04 10:02:05;;;;;;;19.85;17.95;;;11.70;24.30;;;;;;20497;6853;308281;-88
2022/03/04 10:04:33;;;;;;;20.13;18.23;;;11.70;24.30;;;;;;20492;6853;316310;-85
2022/03/04 10:06:57;;;;;;;19.77;17.77;;;11.90;23.80;;;;;;20153;6852;306202;-89
2022/03/04 10:09:46;;;;;;;19.90;18.03;;;12.10;24.10;;;;;;20458;6853;278600;-86
2022/03/04 10:12:12;;;;;;;19.53;17.67;;;12.50;24.00;;;;;;20504;6850;286079;-86
2022/03/04 10:15:04;;;;;;;21.70;18.20;;;12.50;24.00;;;;;;20475;6850;338575;-90
2022/03/04 10:17:33;;;;;;;18.10;16.30;;;12.70;23.50;;;;;;20700;6850;117813;-90
2022/03/04 10:20:00;;;;;;;17.40;15.67;;;12.20;23.90;;;;;;20671;6855;118271;-85
2022/03/04 10:22:36;;;;;;;18.03;15.70;;;12.10;23.80;;;;;;20690;6853;118060;-85
2022/03/04 10:25:01;;;;;;;19.95;18.05;;;11.80;23.90;;;;;;20474;6853;338016;-91
2022/03/04 10:27:26;;;;;;;19.93;18.00;;;11.80;23.20;;;;;;20516;6843;308605;-88
2022/03/04 10:29:52;;;;;;;18.27;16.37;;;12.00;23.00;;;;;;20680;6853;118450;-86
2022/03/04 10:32:22;;;;;;;19.92;17.87;;;11.90;23.20;;;;;;20484;6855;308988;-86
2022/03/04 10:34:49;;;;;;;19.03;16.83;;;11.90;22.80;;;;;;20720;6838;121215;-87
2022/03/04 10:37:15;;;;;;;18.37;16.53;;;11.80;23.10;;;;;;20695;6853;118569;-89
2022/03/04 10:40:00;;;;;;;19.87;17.98;;;11.50;23.40;;;;;;20476;6853;280108;-89
2022/03/04 10:42:52;;;;;;;20.43;18.43;;;11.60;23.40;;;;;;20474;6855;283189;-85
2022/03/04 10:45:18;;;;;;;20.73;18.70;;;11.90;22.90;;;;;;20521;6838;342411;-86
2022/03/04 10:47:44;;;;;;;18.40;16.52;;;12.20;23.40;;;;;;20675;6853;118652;-88
2022/03/04 10:50:09;;;;;;;18.07;16.17;;;12.20;23.70;;;;;;20692;6853;117890;-89
2022/03/04 10:52:35;;;;;;;20.08;17.98;;;12.00;23.90;;;;;;20456;6853;279212;-89
2022/03/04 10:55:00;;;;;;;20.80;18.70;;;12.10;23.60;;;;;;20482;6838;279277;-86
2022/03/04 10:57:26;;;;;;;20.15;16.60;;;12.30;22.90;;;;;;20703;6853;118184;-91
2022/03/04 10:59:58;;;;;;;20.50;18.60;;;12.20;23.00;;;;;;20482;6853;307236;-84
2022/03/04 11:02:40;;;;;;;18.57;16.70;;;12.30;22.50;;;;;;20705;6853;124046;-86
2022/03/04 11:05:08;;;;;;;19.20;17.30;;;12.30;22.70;;;;;;20700;6853;118410;-89
2022/03/04 11:07:33;;;;;;;17.47;15.43;;;12.00;23.10;;;;;;20714;6853;117676;-91
2022/03/04 11:09:59;;;;;;;17.00;15.20;;;11.80;23.20;;;;;;20704;6853;118624;-89
2022/03/04 11:12:27;;;;;;;17.87;16.07;;;11.70;23.30;;;;;;20696;6853;117570;-87
2022/03/04 11:14:51;;;;;;;19.70;17.60;;;11.60;23.30;;;;;;20451;6853;279873;-87
2022/03/04 11:17:18;;;;;;;19.40;16.17;;;11.80;22.40;;;;;;20691;6855;118102;-88
2022/03/04 11:19:43;;;;;;;17.30;15.30;;;11.80;22.30;;;;;;20742;6838;117744;-87
2022/03/04 11:22:09;;;;;;;19.35;16.08;;;11.80;22.60;;;;;;20693;6853;122169;-90
2022/03/04 11:24:36;;;;;;;18.73;16.13;;;11.70;22.80;;;;;;20640;6853;122767;-89
2022/03/04 11:27:01;;;;;;;19.07;17.07;;;11.60;22.80;;;;;;20457;6853;289990;-90
2022/03/04 11:29:33;;;;;;;20.07;17.67;;;11.70;22.30;;;;;;20482;6853;282010;-87
2022/03/04 11:31:58;;;;;;;18.73;17.02;;;12.10;22.60;;;;;;20454;6853;308779;-87
2022/03/04 11:34:24;;;;;;;19.90;18.08;;;12.40;22.10;;;;;;20489;6853;307947;-87
2022/03/04 11:36:49;;;;;;;20.00;17.87;;;12.60;22.30;;;;;;20407;6867;279820;-88
2022/03/04 11:39:15;;;;;;;19.60;17.70;;;12.80;22.30;;;;;;20434;6845;308623;-88
2022/03/04 11:41:48;;;;;;;19.73;17.83;;;12.90;21.40;;;;;;20464;6860;310203;-88
2022/03/04 11:44:21;;;;;;;19.05;17.23;;;13.00;21.00;;;;;;20153;6860;312535;-88
2022/03/04 11:46:49;;;;;;;17.57;15.97;;;13.00;20.90;;;;;;20657;6862;117784;-88
2022/03/04 11:49:48;;;;;;;19.55;17.65;;;12.90;21.40;;;;;;20489;6845;341100;-88
2022/03/04 11:52:11;;;;;;;17.33;15.63;;;12.80;21.30;;;;;;20706;6845;119231;-87
2022/03/04 11:54:36;;;;;;;19.23;15.70;;;12.80;21.80;;;;;;20673;6860;118353;-90
2022/03/04 11:57:18;;;;;;;18.90;17.08;;;12.60;22.00;;;;;;20475;6860;308654;-88
2022/03/04 11:59:57;;;;;;;16.17;14.67;;;12.60;22.00;;;;;;20684;6860;118607;-88
2022/03/04 12:02:26;;;;;;;16.47;14.60;;;12.60;22.00;;;;;;20145;6850;119770;-89
2022/03/04 12:05:15;;;;;;;16.60;14.97;;;12.30;21.80;;;;;;20717;6848;117877;-89
2022/03/04 12:07:41;;;;;;;17.17;14.03;;;12.10;21.90;;;;;;20498;6849;114278;-88
2022/03/04 12:10:09;;;;;;;18.37;16.57;;;11.90;21.80;;;;;;20476;6860;279614;-88
2022/03/04 12:12:34;;;;;;;18.45;16.60;;;11.90;20.80;;;;;;20450;6860;279145;-88
2022/03/04 12:15:23;;;;;;;17.57;15.90;;;12.20;20.30;;;;;;20516;6845;307031;-92
2022/03/04 12:18:04;;;;;;;16.07;14.37;;;12.40;20.60;;;;;;20695;6860;117842;-88
2022/03/04 12:20:40;;;;;;;15.17;13.57;;;12.30;20.90;;;;;;20720;6853;117637;-88
2022/03/04 12:23:16;;;;;;;16.90;15.20;;;12.00;20.90;;;;;;20454;6860;307804;-86
2022/03/04 12:25:51;;;;;;;15.40;13.80;;;12.00;20.10;;;;;;20728;6845;117741;-87